Time;durP1;ratioP1;P1;durP2;ratioP2;P2;SDS_P1;SDS_P2;PMS_P1;PMS_P2;Temp;Humidity;BMP_temperature;BMP_pressure;BME280_temperature;BME280_humidity;BME280_pressure;Samples;Min_cycle;Max_cycle;Signal;HPM_P1;HPM_P2
2022/01/10 00:04:05;;;;;;;10.57;8.70;;;5.20;99.90;;;;;;10423061;28;20221;-79
2022/01/10 00:09:09;;;;;;;11.40;9.13;;;5.30;99.90;;;;;;10422790;28;20194;-80
2022/01/10 00:14:11;;;;;;;10.43;8.80;;;5.30;99.90;;;;;;10423813;28;20238;-79
2022/01/10 00:19:13;;;;;;;10.03;8.97;;;5.30;99.90;;;;;;10422647;28;20662;-79
2022/01/10 00:24:17;;;;;;;10.30;8.53;;;5.40;99.90;;;;;;10421723;28;20655;-79
2022/01/10 00:29:19;;;;;;;9.10;8.20;;;5.50;99.90;;;;;;10423320;28;20642;-80
2022/01/10 00:34:21;;;;;;;9.50;8.50;;;5.50;99.90;;;;;;10426731;28;20285;-82
2022/01/10 00:39:24;;;;;;;8.67;7.87;;;5.50;99.90;;;;;;10412975;28;20208;-82
2022/01/10 00:44:31;;;;;;;8.40;7.70;;;5.60;99.90;;;;;;10427080;28;20754;-83
2022/01/10 00:49:33;;;;;;;11.50;8.00;;;5.50;99.90;;;;;;10413835;28;20233;-80
2022/01/10 00:54:36;;;;;;;9.63;6.87;;;5.50;99.90;;;;;;10407107;28;20240;-82
2022/01/10 00:59:41;;;;;;;9.00;6.70;;;5.50;99.90;;;;;;10435673;28;20200;-82
2022/01/10 01:04:43;;;;;;;7.67;6.97;;;5.50;99.90;;;;;;10425105;28;20586;-80
2022/01/10 01:09:55;;;;;;;7.13;6.47;;;5.50;99.90;;;;;;10450888;28;20263;-81
2022/01/10 01:15:07;;;;;;;7.57;6.13;;;5.50;99.90;;;;;;10430038;28;20213;-83
2022/01/10 01:20:29;;;;;;;5.80;5.20;;;5.50;99.90;;;;;;10459057;28;20193;-82
2022/01/10 01:25:32;;;;;;;6.70;5.53;;;5.50;99.90;;;;;;10422630;28;20685;-82
2022/01/10 01:30:34;;;;;;;6.80;4.90;;;5.50;99.90;;;;;;10412334;28;20300;-82
2022/01/10 01:35:37;;;;;;;5.07;4.57;;;5.50;99.90;;;;;;10427005;28;20308;-83
2022/01/10 01:40:46;;;;;;;6.30;4.97;;;5.50;99.90;;;;;;10399191;28;20198;-80
2022/01/10 01:45:50;;;;;;;6.30;4.07;;;5.50;99.90;;;;;;10410180;28;20244;-83
2022/01/10 01:50:54;;;;;;;6.33;4.20;;;5.50;99.90;;;;;;10416448;28;20217;-83
2022/01/10 01:55:58;;;;;;;6.57;5.33;;;5.50;99.90;;;;;;10407556;28;20297;-80
2022/01/10 02:01:00;;;;;;;8.90;4.30;;;5.50;99.90;;;;;;10408175;28;20209;-83
2022/01/10 02:06:03;;;;;;;4.50;4.10;;;5.50;99.90;;;;;;10430911;28;20221;-83
2022/01/10 02:11:09;;;;;;;4.30;3.50;;;5.50;99.90;;;;;;10424428;28;20677;-80
2022/01/10 02:16:16;;;;;;;4.73;3.60;;;5.50;99.90;;;;;;10435490;28;20300;-79
2022/01/10 02:21:21;;;;;;;4.33;4.03;;;5.60;99.90;;;;;;10436140;28;20225;-82
2022/01/10 02:26:25;;;;;;;3.87;3.30;;;5.60;99.90;;;;;;10423277;28;20761;-82
2022/01/10 02:31:27;;;;;;;7.00;3.40;;;5.60;99.90;;;;;;10405278;28;20217;-83
2022/01/10 02:36:30;;;;;;;4.23;3.80;;;5.60;99.90;;;;;;10417331;28;20228;-82
2022/01/10 02:41:34;;;;;;;4.37;3.80;;;5.60;99.90;;;;;;10463461;28;20201;-83
2022/01/10 02:46:40;;;;;;;9.70;4.00;;;5.60;99.90;;;;;;10450572;28;20213;-82
2022/01/10 02:51:56;;;;;;;7.30;3.97;;;5.60;99.90;;;;;;10422695;28;20281;-82
2022/01/10 02:57:00;;;;;;;6.93;3.50;;;5.60;99.90;;;;;;10417288;28;20213;-83
2022/01/10 03:02:06;;;;;;;3.87;3.57;;;5.60;99.90;;;;;;10419455;28;20193;-81
2022/01/10 03:07:10;;;;;;;5.93;3.47;;;5.70;99.90;;;;;;10428276;28;20229;-81
2022/01/10 03:12:12;;;;;;;6.90;4.20;;;5.70;99.90;;;;;;10384477;28;20742;-82
2022/01/10 03:17:15;;;;;;;8.53;3.83;;;5.70;99.90;;;;;;10408360;28;20206;-80
2022/01/10 03:22:18;;;;;;;8.33;4.37;;;5.80;99.90;;;;;;10408269;28;20202;-81
2022/01/10 03:27:20;;;;;;;5.17;4.50;;;5.80;99.90;;;;;;10395865;28;20222;-83
2022/01/10 03:32:27;;;;;;;6.13;5.00;;;5.80;99.90;;;;;;10419980;28;20267;-82
2022/01/10 03:37:40;;;;;;;8.40;4.80;;;5.80;99.90;;;;;;10434106;28;20198;-83
2022/01/10 03:42:42;;;;;;;7.47;5.97;;;5.80;99.90;;;;;;10437491;28;20692;-83
2022/01/10 03:47:45;;;;;;;6.30;5.80;;;5.90;99.90;;;;;;10453902;28;20213;-83
2022/01/10 03:52:48;;;;;;;8.17;5.97;;;5.90;99.90;;;;;;10437912;28;20220;-83
2022/01/10 03:57:50;;;;;;;11.67;6.90;;;5.90;99.90;;;;;;10453136;28;20194;-81
2022/01/10 04:02:57;;;;;;;9.60;6.90;;;6.00;99.90;;;;;;10437931;28;20244;-83
2022/01/10 04:08:06;;;;;;;13.40;6.90;;;6.00;99.90;;;;;;10442546;28;20638;-81
2022/01/10 04:13:09;;;;;;;8.90;6.77;;;6.00;99.90;;;;;;10445250;28;20591;-82
2022/01/10 04:18:11;;;;;;;7.33;6.63;;;6.00;99.90;;;;;;10463890;28;20197;-83
2022/01/10 04:23:16;;;;;;;8.93;7.00;;;6.10;99.90;;;;;;10435320;28;20225;-83
2022/01/10 04:28:19;;;;;;;10.10;7.80;;;6.10;99.90;;;;;;10418603;28;20267;-84
2022/01/10 04:33:21;;;;;;;11.70;8.13;;;6.10;99.90;;;;;;10453419;28;20229;-83
2022/01/10 04:38:28;;;;;;;13.07;8.53;;;6.20;99.90;;;;;;10420342;28;20628;-83
2022/01/10 04:43:30;;;;;;;10.57;8.50;;;6.20;99.90;;;;;;10456092;28;20224;-83
2022/01/10 04:48:32;;;;;;;11.63;8.87;;;6.30;99.90;;;;;;10445137;28;20225;-84
2022/01/10 04:53:36;;;;;;;10.67;9.50;;;6.30;99.90;;;;;;10448303;28;20228;-84
2022/01/10 04:58:39;;;;;;;10.53;9.40;;;6.30;99.90;;;;;;10425574;28;20204;-82
2022/01/10 05:03:42;;;;;;;13.70;8.80;;;6.40;99.90;;;;;;10443544;28;20305;-80
2022/01/10 05:08:45;;;;;;;13.63;10.07;;;6.30;99.90;;;;;;10409901;28;20220;-82
2022/01/10 05:13:52;;;;;;;11.40;9.63;;;6.30;99.90;;;;;;10441490;28;20213;-82
2022/01/10 05:18:54;;;;;;;11.80;10.43;;;6.30;99.90;;;;;;10447285;28;20198;-82
2022/01/10 05:23:58;;;;;;;15.73;11.67;;;6.30;99.90;;;;;;10415895;28;20826;-81
2022/01/10 05:29:01;;;;;;;14.20;10.60;;;6.30;99.90;;;;;;10408923;28;20250;-83
2022/01/10 05:34:04;;;;;;;11.23;10.00;;;6.30;99.90;;;;;;10439576;28;20225;-83
2022/01/10 05:39:08;;;;;;;12.40;10.83;;;6.30;99.90;;;;;;10430254;28;20205;-82
2022/01/10 05:44:10;;;;;;;12.60;10.40;;;6.30;99.90;;;;;;10403359;28;20347;-80
2022/01/10 05:49:19;;;;;;;17.07;11.67;;;6.30;99.90;;;;;;10448174;28;20233;-82
2022/01/10 05:54:23;;;;;;;15.40;11.83;;;6.30;99.90;;;;;;10409313;28;20685;-82
2022/01/10 05:59:25;;;;;;;13.10;11.60;;;6.20;99.90;;;;;;10450689;28;20197;-79
2022/01/10 06:04:30;;;;;;;15.77;11.53;;;6.20;99.90;;;;;;10424202;28;20221;-79
2022/01/10 06:09:34;;;;;;;16.33;12.30;;;6.20;99.90;;;;;;10448153;28;20217;-80
2022/01/10 06:14:36;;;;;;;13.83;11.20;;;6.20;99.90;;;;;;10427029;28;20217;-79
2022/01/10 06:19:39;;;;;;;15.20;12.97;;;6.30;99.90;;;;;;10437733;28;20286;-79
2022/01/10 06:24:42;;;;;;;14.23;12.70;;;6.30;99.90;;;;;;10425716;28;20218;-78
2022/01/10 06:29:45;;;;;;;14.70;12.80;;;6.30;99.90;;;;;;10450844;28;20300;-78
2022/01/10 06:34:48;;;;;;;15.83;14.20;;;6.30;99.90;;;;;;10424206;28;20236;-80
2022/01/10 06:39:52;;;;;;;22.77;14.97;;;6.40;99.90;;;;;;10451130;28;20543;-82
2022/01/10 06:44:55;;;;;;;19.47;15.43;;;6.40;99.90;;;;;;10422695;28;20247;-81
2022/01/10 06:49:57;;;;;;;20.30;14.70;;;6.40;99.90;;;;;;10455364;28;20218;-81
2022/01/10 06:55:01;;;;;;;14.33;12.40;;;6.40;99.90;;;;;;10414580;28;20590;-81
2022/01/10 07:00:05;;;;;;;16.30;14.50;;;6.40;99.90;;;;;;10460050;28;20196;-81
2022/01/10 07:05:17;;;;;;;18.37;16.40;;;6.40;99.90;;;;;;10431553;28;20252;-80
2022/01/10 07:10:25;;;;;;;20.23;15.80;;;6.40;99.90;;;;;;10458286;28;20230;-81
2022/01/10 07:15:29;;;;;;;18.17;15.70;;;6.40;99.90;;;;;;10415099;28;20217;-81
2022/01/10 07:20:33;;;;;;;17.43;15.20;;;6.40;99.90;;;;;;10442302;28;20221;-81
2022/01/10 07:25:37;;;;;;;18.57;15.90;;;6.40;99.90;;;;;;10431027;28;20300;-81
2022/01/10 07:30:39;;;;;;;18.80;15.77;;;6.40;99.90;;;;;;10459273;28;20558;-80
2022/01/10 07:35:41;;;;;;;24.20;16.93;;;6.40;99.90;;;;;;10432708;28;20700;-81
2022/01/10 07:40:45;;;;;;;17.90;15.30;;;6.40;99.90;;;;;;10460495;28;20280;-81
2022/01/10 07:45:49;;;;;;;17.10;15.37;;;6.40;99.90;;;;;;10433284;28;20213;-81
2022/01/10 07:50:51;;;;;;;20.90;16.00;;;6.40;99.90;;;;;;10464988;28;20196;-80
2022/01/10 07:55:54;;;;;;;18.03;16.13;;;6.40;99.90;;;;;;10434685;28;20209;-82
2022/01/10 08:00:57;;;;;;;16.90;15.30;;;6.40;99.90;;;;;;10465518;28;20202;-81
2022/01/10 08:05:59;;;;;;;17.13;15.33;;;6.50;99.90;;;;;;10432110;28;20209;-81
2022/01/10 08:11:02;;;;;;;17.20;15.40;;;6.40;99.90;;;;;;10438379;28;20197;-81
2022/01/10 08:16:05;;;;;;;17.93;15.87;;;6.40;99.90;;;;;;10424535;28;20581;-79
2022/01/10 08:21:07;;;;;;;18.67;16.67;;;6.40;99.90;;;;;;10455579;28;20198;-80
2022/01/10 08:26:11;;;;;;;24.37;18.53;;;6.40;99.90;;;;;;10421931;28;20209;-80
2022/01/10 08:31:13;;;;;;;23.33;18.80;;;6.40;99.90;;;;;;10438411;28;20197;-80
2022/01/10 08:36:15;;;;;;;22.83;19.53;;;6.40;99.90;;;;;;10421407;28;20618;-79
2022/01/10 08:41:19;;;;;;;21.23;18.10;;;6.50;99.90;;;;;;10456547;28;20291;-80
2022/01/10 08:46:21;;;;;;;21.17;18.87;;;6.50;99.90;;;;;;10418653;28;20581;-80
2022/01/10 08:51:23;;;;;;;26.63;19.80;;;6.60;99.90;;;;;;10457451;28;20194;-80
2022/01/10 08:56:27;;;;;;;22.57;20.00;;;6.70;99.90;;;;;;10418279;28;20666;-81
2022/01/10 09:01:30;;;;;;;21.80;19.00;;;6.70;99.90;;;;;;10457161;28;20209;-80
2022/01/10 09:06:32;;;;;;;25.80;19.43;;;6.70;99.90;;;;;;10399810;28;20229;-80
2022/01/10 09:11:35;;;;;;;21.60;18.50;;;6.80;99.90;;;;;;10458168;28;20273;-81
2022/01/10 09:16:38;;;;;;;20.10;18.00;;;6.80;99.90;;;;;;10415962;28;20583;-80
2022/01/10 09:21:41;;;;;;;22.80;19.87;;;6.90;99.90;;;;;;10456687;28;20272;-81
2022/01/10 09:26:45;;;;;;;25.43;19.63;;;6.90;99.90;;;;;;10416723;28;20221;-81
2022/01/10 09:31:47;;;;;;;22.77;18.53;;;6.90;99.90;;;;;;10391767;28;20209;-82
2022/01/10 09:36:49;;;;;;;21.57;19.37;;;6.90;99.90;;;;;;10458610;28;20275;-80
2022/01/10 09:41:53;;;;;;;20.73;18.40;;;6.90;99.90;;;;;;10419648;28;20194;-81
2022/01/10 09:46:55;;;;;;;25.83;18.97;;;6.90;99.90;;;;;;10457862;28;20220;-81
2022/01/10 09:51:57;;;;;;;24.37;20.77;;;6.90;99.90;;;;;;10419577;28;20194;-81
2022/01/10 09:57:00;;;;;;;24.53;18.43;;;7.00;99.90;;;;;;10459028;28;20209;-80
2022/01/10 10:02:03;;;;;;;20.60;18.40;;;7.00;99.90;;;;;;10434943;28;20201;-81
2022/01/10 10:07:07;;;;;;;23.10;18.57;;;7.00;99.90;;;;;;10457043;28;20289;-81
2022/01/10 10:12:10;;;;;;;18.50;15.80;;;7.10;99.90;;;;;;10420913;28;20662;-81
2022/01/10 10:17:17;;;;;;;19.87;15.33;;;7.20;99.90;;;;;;10450477;28;20210;-81
2022/01/10 10:22:20;;;;;;;19.37;17.23;;;7.30;99.90;;;;;;10459986;28;20205;-81
2022/01/10 10:27:23;;;;;;;19.20;17.23;;;7.40;99.90;;;;;;10429624;28;20237;-81
2022/01/10 10:32:30;;;;;;;22.80;18.30;;;7.60;99.90;;;;;;10422318;28;20189;-81
2022/01/10 10:37:36;;;;;;;19.77;17.73;;;7.60;99.90;;;;;;10451527;28;20225;-81
2022/01/10 10:42:41;;;;;;;21.23;17.30;;;7.60;99.90;;;;;;10450283;28;20221;-81
2022/01/10 10:47:45;;;;;;;19.73;17.63;;;7.50;99.90;;;;;;10453318;28;20272;-81
2022/01/10 10:52:47;;;;;;;19.40;17.50;;;7.40;99.90;;;;;;10445359;28;20217;-81
2022/01/10 10:57:54;;;;;;;19.53;16.47;;;7.40;99.90;;;;;;10444329;28;20197;-81
2022/01/10 11:02:56;;;;;;;21.47;16.37;;;7.40;99.90;;;;;;10443355;28;20576;-81
2022/01/10 11:07:59;;;;;;;17.37;15.57;;;7.40;99.90;;;;;;10439696;28;20224;-82
2022/01/10 11:13:03;;;;;;;17.63;15.60;;;7.40;99.90;;;;;;10420953;28;20222;-80
2022/01/10 11:18:07;;;;;;;17.00;15.30;;;7.40;99.90;;;;;;10441358;28;20190;-81
2022/01/10 11:23:10;;;;;;;17.53;15.07;;;7.40;99.90;;;;;;10431718;28;20214;-81
2022/01/10 11:28:23;;;;;;;15.80;13.40;;;7.40;99.90;;;;;;10447779;28;20228;-82
2022/01/10 11:33:27;;;;;;;16.30;14.53;;;7.40;99.90;;;;;;10470294;28;20250;-80
2022/01/10 11:38:32;;;;;;;16.10;13.10;;;7.40;99.90;;;;;;10461897;28;20205;-81
2022/01/10 11:43:42;;;;;;;16.30;13.93;;;7.50;99.90;;;;;;10423955;28;20252;-82
2022/01/10 11:48:50;;;;;;;14.77;12.67;;;7.60;99.90;;;;;;10432676;28;20225;-82
2022/01/10 11:54:02;;;;;;;17.83;13.57;;;7.50;99.90;;;;;;10459940;28;20240;-82
2022/01/10 11:59:11;;;;;;;21.83;13.37;;;7.50;99.90;;;;;;10420803;28;20190;-80
2022/01/10 12:04:14;;;;;;;13.97;12.60;;;7.40;99.90;;;;;;10460899;28;20213;-81
2022/01/10 12:09:16;;;;;;;13.73;12.37;;;7.50;99.90;;;;;;10420057;28;20222;-82
2022/01/10 12:14:23;;;;;;;13.93;11.60;;;7.60;99.90;;;;;;10459349;28;20228;-80
2022/01/10 12:19:26;;;;;;;16.47;11.30;;;7.70;99.90;;;;;;10434754;28;20204;-82
2022/01/10 12:24:29;;;;;;;13.97;11.87;;;7.90;99.90;;;;;;10460787;28;20225;-80
2022/01/10 12:29:33;;;;;;;18.33;12.10;;;8.00;99.90;;;;;;10435716;28;20218;-80
2022/01/10 12:34:35;;;;;;;16.03;12.13;;;8.20;99.90;;;;;;10473879;22;20603;-83
2022/01/10 12:39:38;;;;;;;16.67;13.07;;;8.00;99.90;;;;;;10456191;28;20722;-84
2022/01/10 12:44:42;;;;;;;16.67;13.10;;;7.80;99.90;;;;;;10424819;28;20208;-82
2022/01/10 12:49:47;;;;;;;22.40;14.80;;;7.70;99.90;;;;;;10425627;28;20209;-80
2022/01/10 12:55:03;;;;;;;17.77;13.30;;;7.70;99.90;;;;;;10443401;28;20222;-80
2022/01/10 13:00:13;;;;;;;17.20;13.93;;;7.70;99.90;;;;;;10459541;28;20532;-80
2022/01/10 13:05:21;;;;;;;17.47;14.60;;;7.70;99.90;;;;;;10484786;28;20771;-80
2022/01/10 13:10:29;;;;;;;20.93;18.10;;;7.60;99.90;;;;;;10500877;28;20672;-82
2022/01/10 13:15:35;;;;;;;18.50;16.67;;;7.60;99.90;;;;;;10490818;28;20684;-82
2022/01/10 13:20:38;;;;;;;21.43;17.10;;;7.60;99.90;;;;;;10507680;28;20216;-82
2022/01/10 13:25:45;;;;;;;22.23;17.97;;;7.70;99.90;;;;;;10495992;28;20287;-82
2022/01/10 13:30:52;;;;;;;27.20;18.70;;;7.70;99.90;;;;;;10446847;28;20228;-83
2022/01/10 13:35:59;;;;;;;20.23;17.20;;;7.70;99.90;;;;;;10438372;28;20275;-83
2022/01/10 13:41:01;;;;;;;20.63;17.83;;;7.80;99.90;;;;;;10467770;28;20248;-82
2022/01/10 13:46:07;;;;;;;19.80;17.27;;;7.80;99.90;;;;;;10439511;28;20217;-84
2022/01/10 13:51:14;;;;;;;22.40;17.97;;;7.80;99.90;;;;;;10436992;28;20267;-84
2022/01/10 13:56:19;;;;;;;21.03;17.87;;;7.80;99.90;;;;;;10434638;28;20279;-83
2022/01/10 14:01:24;;;;;;;19.37;17.13;;;7.80;99.90;;;;;;10441276;28;20193;-83
2022/01/10 14:06:30;;;;;;;22.00;16.80;;;7.80;99.90;;;;;;10442952;28;20213;-84
2022/01/10 14:11:35;;;;;;;25.17;17.20;;;7.90;99.90;;;;;;10442462;28;20271;-83
2022/01/10 14:16:39;;;;;;;19.57;16.20;;;7.90;99.90;;;;;;10442426;28;20308;-83
2022/01/10 14:21:41;;;;;;;18.00;14.40;;;7.90;99.90;;;;;;10442889;28;20258;-84
2022/01/10 14:26:43;;;;;;;15.47;13.97;;;7.80;99.90;;;;;;10442962;28;20610;-84
2022/01/10 14:31:47;;;;;;;20.47;15.33;;;7.70;99.90;;;;;;10426442;28;20236;-84
2022/01/10 14:36:49;;;;;;;18.37;14.80;;;7.70;99.90;;;;;;10385669;28;20233;-83
2022/01/10 14:41:51;;;;;;;17.70;15.37;;;7.70;99.90;;;;;;10462891;28;20271;-83
2022/01/10 14:46:54;;;;;;;19.17;15.47;;;7.60;99.90;;;;;;10429371;28;20277;-82
2022/01/10 14:51:57;;;;;;;21.80;16.60;;;7.60;99.90;;;;;;10431104;28;20204;-83
2022/01/10 14:56:59;;;;;;;21.67;17.40;;;7.60;99.90;;;;;;10448737;28;20224;-83
2022/01/10 15:02:03;;;;;;;21.53;17.53;;;7.60;99.90;;;;;;10449381;28;20613;-84
2022/01/10 15:07:05;;;;;;;20.70;17.27;;;7.60;99.90;;;;;;10475339;28;20217;-83
2022/01/10 15:12:09;;;;;;;17.93;16.10;;;7.50;99.90;;;;;;10445644;28;20284;-82
2022/01/10 15:17:12;;;;;;;19.47;15.53;;;7.40;99.90;;;;;;10443923;28;20227;-82
2022/01/10 15:22:14;;;;;;;17.30;15.50;;;7.40;99.90;;;;;;10428418;28;20200;-82
2022/01/10 15:27:17;;;;;;;18.23;15.90;;;7.30;99.90;;;;;;10446623;28;20205;-82
2022/01/10 15:32:20;;;;;;;16.33;14.60;;;7.30;99.90;;;;;;10444496;28;20193;-82
2022/01/10 15:37:22;;;;;;;14.90;13.40;;;7.20;99.90;;;;;;10461969;28;20240;-83
2022/01/10 15:42:26;;;;;;;20.60;15.17;;;7.20;99.90;;;;;;10430819;28;20653;-82
2022/01/10 15:47:30;;;;;;;17.87;14.83;;;7.20;99.90;;;;;;10429168;28;20296;-83
2022/01/10 15:52:32;;;;;;;13.57;11.00;;;7.10;99.90;;;;;;10446082;28;20204;-84
2022/01/10 15:57:34;;;;;;;17.87;14.90;;;7.00;99.90;;;;;;10465184;28;20224;-84
2022/01/10 16:02:38;;;;;;;23.27;14.93;;;7.00;99.90;;;;;;10445760;28;20657;-84
2022/01/10 16:07:40;;;;;;;21.63;16.07;;;6.90;99.90;;;;;;10429564;28;20252;-82
2022/01/10 16:12:42;;;;;;;21.10;16.53;;;6.80;99.90;;;;;;10448023;28;20198;-85
2022/01/10 16:17:47;;;;;;;19.90;15.30;;;6.70;99.90;;;;;;10464579;28;20313;-84
2022/01/10 16:22:49;;;;;;;19.20;15.07;;;6.60;99.90;;;;;;10430280;28;20201;-84
2022/01/10 16:27:51;;;;;;;16.40;14.70;;;6.40;99.90;;;;;;10453257;28;20220;-84
2022/01/10 16:32:55;;;;;;;18.47;14.80;;;6.40;99.90;;;;;;10467319;28;20198;-82
2022/01/10 16:37:58;;;;;;;20.80;14.87;;;6.30;99.90;;;;;;10444482;28;20288;-82
2022/01/10 16:43:01;;;;;;;23.13;18.90;;;6.30;99.90;;;;;;10443419;28;20300;-82
2022/01/10 16:48:05;;;;;;;23.57;20.07;;;6.20;99.90;;;;;;10433797;28;20220;-82
2022/01/10 16:53:07;;;;;;;24.63;19.73;;;6.00;99.90;;;;;;10426385;28;20252;-82
2022/01/10 16:58:13;;;;;;;30.57;20.03;;;6.00;99.90;;;;;;10457629;28;20657;-82
2022/01/10 17:03:17;;;;;;;24.60;21.20;;;5.90;99.90;;;;;;10440013;28;20224;-83
2022/01/10 17:08:20;;;;;;;29.83;21.63;;;5.90;99.90;;;;;;10440645;28;20231;-82
2022/01/10 17:13:22;;;;;;;25.50;21.97;;;5.90;99.90;;;;;;10441227;28;20217;-84
2022/01/10 17:18:26;;;;;;;21.83;19.37;;;6.00;99.90;;;;;;10464317;28;20267;-83
2022/01/10 17:23:28;;;;;;;26.17;22.47;;;6.00;99.90;;;;;;10431118;28;20217;-84
2022/01/10 17:28:30;;;;;;;37.63;25.50;;;6.10;99.90;;;;;;10446505;28;20217;-82
2022/01/10 17:33:34;;;;;;;49.97;36.10;;;6.10;99.90;;;;;;10436474;28;20235;-84
2022/01/10 17:38:36;;;;;;;34.33;26.67;;;6.10;99.90;;;;;;10419824;28;20608;-84
2022/01/10 17:43:39;;;;;;;25.53;20.90;;;6.10;99.90;;;;;;10420009;28;20251;-84
2022/01/10 17:48:43;;;;;;;25.97;20.17;;;6.10;99.90;;;;;;10419199;28;20220;-83
2022/01/10 17:53:45;;;;;;;26.33;20.73;;;6.10;99.90;;;;;;10419654;28;20232;-83
2022/01/10 17:58:47;;;;;;;30.37;23.10;;;6.10;99.90;;;;;;10415722;28;20261;-84
2022/01/10 18:03:52;;;;;;;31.60;24.10;;;6.10;99.90;;;;;;10450949;28;20295;-84
2022/01/10 18:08:54;;;;;;;28.20;23.63;;;6.10;99.90;;;;;;10431084;28;20239;-83
2022/01/10 18:13:57;;;;;;;31.60;22.27;;;6.10;99.90;;;;;;10430098;28;20228;-84
2022/01/10 18:19:00;;;;;;;30.40;22.50;;;6.10;99.90;;;;;;10448974;28;20201;-85
2022/01/10 18:24:02;;;;;;;24.50;21.90;;;6.10;99.90;;;;;;10438004;28;20252;-82
2022/01/10 18:29:17;;;;;;;26.90;21.87;;;6.00;99.90;;;;;;10446571;28;20221;-83
2022/01/10 18:34:21;;;;;;;32.47;24.17;;;6.00;99.90;;;;;;10470517;23;20743;-78
2022/01/10 18:39:24;;;;;;;25.20;22.50;;;6.00;99.90;;;;;;10416418;28;20197;-79
2022/01/10 18:44:26;;;;;;;27.87;22.43;;;5.90;99.90;;;;;;10427792;28;20276;-78
2022/01/10 18:49:30;;;;;;;29.60;25.37;;;5.80;99.90;;;;;;10452175;28;20217;-78
2022/01/10 18:54:32;;;;;;;25.80;22.60;;;5.80;99.90;;;;;;10454041;28;20221;-76
2022/01/10 18:59:34;;;;;;;29.37;22.30;;;5.70;99.90;;;;;;10421746;28;20627;-76
2022/01/10 19:04:38;;;;;;;26.63;21.97;;;5.60;99.90;;;;;;10423894;28;20303;-78
2022/01/10 19:09:40;;;;;;;26.43;21.10;;;5.50;99.90;;;;;;10450170;28;20209;-78
2022/01/10 19:14:42;;;;;;;26.53;22.80;;;5.40;99.90;;;;;;10435702;28;20296;-78
2022/01/10 19:19:46;;;;;;;26.30;23.53;;;5.30;99.90;;;;;;10448408;28;20193;-78
2022/01/10 19:24:48;;;;;;;32.23;23.80;;;5.20;99.90;;;;;;10435218;28;20272;-79
2022/01/10 19:29:50;;;;;;;27.00;23.10;;;5.20;99.90;;;;;;10423519;28;20301;-81
2022/01/10 19:34:53;;;;;;;28.23;24.27;;;5.10;99.90;;;;;;10425780;28;20222;-80
2022/01/10 19:39:55;;;;;;;27.53;22.40;;;5.00;99.90;;;;;;10419775;28;20194;-83
2022/01/10 19:44:58;;;;;;;27.53;22.50;;;5.00;99.90;;;;;;10465317;28;20304;-82
2022/01/10 19:50:02;;;;;;;31.90;26.03;;;4.90;99.90;;;;;;10464543;28;20267;-80
2022/01/10 19:55:05;;;;;;;28.17;22.30;;;4.90;99.90;;;;;;10447121;28;20585;-79
2022/01/10 20:00:10;;;;;;;26.03;22.87;;;4.80;99.90;;;;;;10464574;28;20287;-80
2022/01/10 20:05:13;;;;;;;27.20;23.33;;;4.80;99.90;;;;;;10465086;28;20629;-79
2022/01/10 20:10:16;;;;;;;31.50;23.73;;;4.80;99.90;;;;;;10435857;28;20220;-79
2022/01/10 20:15:18;;;;;;;25.83;23.03;;;4.80;99.90;;;;;;10422090;28;20222;-84
2022/01/10 20:20:22;;;;;;;27.43;22.60;;;4.90;99.90;;;;;;10448863;28;20220;-83
2022/01/10 20:25:24;;;;;;;29.43;23.33;;;5.00;99.90;;;;;;10464297;28;20213;-85
2022/01/10 20:30:28;;;;;;;31.10;25.47;;;5.10;99.90;;;;;;10445885;28;20586;-85
2022/01/10 20:35:32;;;;;;;27.87;24.90;;;5.20;99.90;;;;;;10460486;28;20229;-85
2022/01/10 20:40:37;;;;;;;31.03;27.00;;;5.30;99.90;;;;;;10403551;28;20204;-84
2022/01/10 20:45:39;;;;;;;27.50;24.50;;;5.30;99.90;;;;;;10397520;28;20316;-85
2022/01/10 20:50:43;;;;;;;28.73;23.83;;;5.30;99.90;;;;;;10420337;28;20316;-85
2022/01/10 20:55:45;;;;;;;28.33;23.80;;;5.40;99.90;;;;;;10424184;28;20591;-84
2022/01/10 21:00:48;;;;;;;29.40;24.83;;;5.40;99.90;;;;;;10403121;28;20201;-84
2022/01/10 21:05:51;;;;;;;25.03;22.40;;;5.40;99.90;;;;;;10419443;28;20273;-85
2022/01/10 21:10:55;;;;;;;33.03;21.27;;;5.50;99.90;;;;;;10440433;28;20217;-85
2022/01/10 21:15:57;;;;;;;27.23;21.33;;;5.50;99.90;;;;;;10439451;28;20218;-85
2022/01/10 21:21:01;;;;;;;24.80;20.67;;;5.60;99.90;;;;;;10416594;28;20213;-84
2022/01/10 21:26:03;;;;;;;27.27;22.47;;;5.60;99.90;;;;;;10433553;28;20222;-84
2022/01/10 21:31:06;;;;;;;29.00;22.77;;;5.60;99.90;;;;;;10420541;28;20260;-84
2022/01/10 21:36:10;;;;;;;28.03;24.03;;;5.60;99.90;;;;;;10400586;28;20299;-84
2022/01/10 21:41:12;;;;;;;30.10;23.20;;;5.60;99.90;;;;;;10400489;28;20741;-84
2022/01/10 21:46:14;;;;;;;32.97;23.07;;;5.60;99.90;;;;;;10416332;28;20229;-83
2022/01/10 21:51:18;;;;;;;27.60;23.77;;;5.60;99.90;;;;;;10415235;28;20217;-84
2022/01/10 21:56:20;;;;;;;29.30;22.93;;;5.60;99.90;;;;;;10397434;28;20603;-83
2022/01/10 22:01:23;;;;;;;31.83;23.97;;;5.60;99.90;;;;;;10429225;28;20174;-83
2022/01/10 22:06:28;;;;;;;24.97;21.53;;;5.50;99.90;;;;;;10423158;28;20230;-84
2022/01/10 22:11:30;;;;;;;27.70;23.60;;;5.50;99.90;;;;;;10415206;28;20214;-84
2022/01/10 22:16:32;;;;;;;27.50;23.17;;;5.50;99.90;;;;;;10397669;28;20245;-84
2022/01/10 22:21:37;;;;;;;30.20;22.10;;;5.40;99.90;;;;;;10419218;28;20261;-84
2022/01/10 22:26:39;;;;;;;30.73;24.40;;;5.40;99.90;;;;;;10406650;28;20221;-85
2022/01/10 22:31:42;;;;;;;28.43;23.80;;;5.40;99.90;;;;;;10425496;28;20240;-85
2022/01/10 22:36:45;;;;;;;29.07;23.80;;;5.40;99.90;;;;;;10407682;28;20646;-83
2022/01/10 22:41:47;;;;;;;27.63;22.17;;;5.40;99.90;;;;;;10403043;28;20194;-84
2022/01/10 22:46:50;;;;;;;26.30;21.13;;;5.40;99.90;;;;;;10403704;28;20280;-83
2022/01/10 22:51:53;;;;;;;26.77;22.80;;;5.40;99.90;;;;;;10431792;28;20705;-83
2022/01/10 22:56:55;;;;;;;26.50;22.10;;;5.40;99.90;;;;;;10421242;28;20218;-82
2022/01/10 23:01:57;;;;;;;29.63;21.90;;;5.50;99.90;;;;;;10419004;28;20196;-82
2022/01/10 23:07:01;;;;;;;27.90;22.27;;;5.50;99.90;;;;;;10417345;28;20218;-82
2022/01/10 23:12:03;;;;;;;25.80;22.67;;;5.60;99.90;;;;;;10394663;28;20207;-82
2022/01/10 23:17:06;;;;;;;26.50;21.93;;;5.60;99.90;;;;;;10410124;28;20414;-82
2022/01/10 23:22:09;;;;;;;27.87;21.13;;;5.70;99.90;;;;;;10411804;28;20230;-82
2022/01/10 23:27:11;;;;;;;23.70;21.20;;;5.70;99.90;;;;;;10396124;28;20309;-82
2022/01/10 23:32:15;;;;;;;26.13;22.57;;;5.70;99.90;;;;;;10388145;28;20706;-82
2022/01/10 23:37:19;;;;;;;27.97;22.27;;;5.60;99.90;;;;;;10409105;28;21488;-82
2022/01/10 23:42:21;;;;;;;27.40;23.00;;;5.60;99.90;;;;;;10413349;28;20277;-82
2022/01/10 23:47:23;;;;;;;26.30;21.40;;;5.60;99.90;;;;;;10411132;28;20229;-82
2022/01/10 23:52:33;;;;;;;28.10;22.57;;;5.60;99.90;;;;;;10392467;28;20314;-82
2022/01/10 23:57:35;;;;;;;27.07;22.37;;;5.70;99.90;;;;;;10406823;28;20222;-83
